Latest Weather Observations for Leonora Airport

IDW60801

Issued at 10:02 am WST Monday 30 March 2015 (issued every 30 minutes, with the page automatically refreshed every 10 minutes)

About weather observations | Map of weather stations | Latest weather observations for WA | Other Formats
Station Details ID: 012241 Name: LEONORA AERO Lat: -28.88 Lon: 121.32 Height: 370.0 m
Data from the previous 72 hours. | See also: Recent months for locations in Western Australia
Date/Time
WST
Temp
°C
App
Temp
°C
Dew
Point
Rel
Hum
%
Delta-T
°C
Wind Press
QNH
hPa
Press
MSL
hPa
Rain
since 9 am
mm
Dir
 
Spd
km/h
Gust
km/h
Spd
kts
Gust
kts
30/10:00am 28.6 24.7 9.3 30 10.9 NE 20 30 11 16 1020.1 1018.1 0.0
30/09:30am 27.4 23.5 9.3 32 10.1 NNE 20 30 11 16 1020.2 1018.2 0.0
30/09:00am 26.5 21.5 9.4 34 9.5 NE 26 37 14 20 1020.4 1018.4 0.0
30/08:30am 25.1 20.1 9.4 37 8.7 NE 26 37 14 20 1020.6 1018.6 0.0
30/08:00am 23.7 19.2 10.0 42 7.6 NE 24 33 13 18 1020.4 1018.4 0.0
30/07:30am 22.6 19.6 10.7 47 6.7 ENE 17 24 9 13 1020.1 1018.1 0.0
30/07:00am 20.5 18.0 11.2 55 5.2 ENE 15 20 8 11 1019.9 1017.9 0.0
30/06:30am 18.4 16.7 11.2 63 4.0 E 11 15 6 8 1019.8 1017.8 0.0
30/06:00am 18.1 16.6 10.7 62 4.0 E 9 13 5 7 1019.6 1017.5 0.0
30/05:30am 18.5 17.0 10.6 60 4.3 E 9 11 5 6 1019.4 1017.3 0.0
30/05:00am 19.0 17.1 10.6 58 4.6 E 11 13 6 7 1019.0 1016.9 0.0
30/04:30am 18.2 16.6 10.1 59 4.4 E 9 11 5 6 1018.8 1016.7 0.0
30/04:00am 19.1 17.4 9.9 55 5.0 E 9 11 5 6 1018.3 1016.2 0.0
30/03:30am 19.9 18.2 9.8 52 5.5 ENE 9 13 5 7 1018.3 1016.2 0.0
30/03:00am 20.4 18.3 9.9 51 5.7 E 11 15 6 8 1018.4 1016.3 0.0
30/02:30am 20.4 18.2 9.3 49 6.0 E 11 15 6 8 1018.1 1016.1 0.0
30/02:00am 20.9 18.6 8.9 46 6.4 E 11 15 6 8 1018.6 1016.5 0.0
30/01:30am 21.0 18.5 8.3 44 6.8 E 11 15 6 8 1018.9 1016.8 0.0
30/01:00am 20.6 18.5 8.3 45 6.5 E 9 11 5 6 1019.1 1017.0 0.0
30/12:30am 21.5 19.4 8.1 42 7.1 E 9 13 5 7 1019.3 1017.2 0.0
30/12:00am 21.5 19.3 7.7 41 7.3 ESE 9 13 5 7 1019.3 1017.2 0.0
 
Date/Time
WST
Temp
°C
App
Temp
°C
Dew
Point
Rel
Hum
%
Delta-T
°C
Wind Press
QNH
hPa
Press
MSL
hPa
Rain
since 9 am
mm
Dir
 
Spd
km/h
Gust
km/h
Spd
kts
Gust
kts
29/11:30pm 21.8 19.2 7.6 40 7.5 ESE 11 13 6 7 1019.4 1017.3 0.0
29/11:00pm 22.3 20.0 7.3 38 7.9 ESE 9 11 5 6 1019.6 1017.5 0.0
29/10:30pm 23.7 20.6 7.3 35 8.7 E 13 15 7 8 1019.7 1017.7 0.0
29/10:00pm 24.0 20.9 7.2 34 8.9 E 13 17 7 9 1019.9 1017.9 0.0
29/09:30pm 24.1 21.4 7.3 34 8.9 ESE 11 15 6 8 1020.1 1018.1 0.0
29/09:00pm 24.6 21.5 7.3 33 9.2 ESE 13 17 7 9 1020.1 1018.1 0.0
29/08:30pm 24.8 22.1 7.4 33 9.3 ESE 11 15 6 8 1020.1 1018.1 0.0
29/08:00pm 25.5 22.9 7.6 32 9.6 ESE 11 13 6 7 1020.2 1018.2 0.0
29/07:30pm 26.2 23.1 7.3 30 10.2 ESE 13 15 7 8 1019.8 1017.8 0.0
29/07:00pm 26.4 24.1 7.4 30 10.2 ESE 9 11 5 6 1019.7 1017.7 0.0
29/06:30pm 27.2 24.8 7.1 28 10.8 ESE 9 11 5 6 1019.4 1017.3 0.0
29/06:00pm 28.1 26.0 6.8 26 11.5 E 7 9 4 5 1019.1 1017.0 0.0
29/05:30pm 29.0 27.2 7.0 25 12.0 ESE 6 11 3 6 1018.7 1016.6 0.0
29/05:00pm 29.3 28.2 6.7 24 12.2 ENE 2 9 1 5 1018.9 1016.8 0.0
29/04:30pm 29.7 27.2 6.4 23 12.6 ENE 9 20 5 11 1018.8 1016.7 0.0
29/04:00pm 30.4 29.3 7.0 23 12.8 SE 2 9 1 5 1018.6 1016.5 0.0
29/03:30pm 29.8 27.4 7.1 24 12.4 NE 9 13 5 7 1018.5 1016.4 0.0
29/03:00pm 30.6 28.9 7.7 24 12.7 NE 6 17 3 9 1018.1 1016.1 0.0
29/02:30pm 30.6 27.7 8.3 25 12.5 E 13 20 7 11 1018.4 1016.3 0.0
29/02:00pm 29.5 28.0 6.8 24 12.3 NE 4 15 2 8 1018.6 1016.5 0.0
29/01:30pm 29.7 27.3 8.7 27 11.8 SE 11 19 6 10 1019.1 1017.0 0.0
29/01:00pm 29.4 27.5 9.0 28 11.5 SSE 9 15 5 8 1019.3 1017.2 0.0
29/12:30pm 29.1 28.1 10.3 31 10.8 SE 6 17 3 9 1019.7 1017.7 0.0
29/12:00pm 28.3 26.5 10.9 34 10.0 NNE 11 20 6 11 1020.3 1018.3 0.0
29/11:30am 27.9 26.2 12.3 38 9.2 NE 13 22 7 12 1020.9 1018.9 0.0
29/11:00am 27.4 24.7 13.0 41 8.6 ENE 19 26 10 14 1021.5 1019.4 0.0
29/10:30am 26.4 24.2 13.2 44 7.9 ENE 17 22 9 12 1022.0 1019.9 0.0
29/10:00am 25.3 22.7 13.8 49 6.9 ENE 20 24 11 13 1022.2 1020.2 0.0
29/09:30am 24.2 22.5 14.6 55 5.8 E 17 22 9 12 1022.3 1020.3 0.0
29/09:00am 22.9 21.2 14.7 60 4.9 E 17 24 9 13 1022.4 1020.4 0.0
29/08:30am 21.5 20.1 14.4 64 4.2 E 15 20 8 11 1022.3 1020.3 0.0
29/08:00am 20.2 18.3 14.1 68 3.6 E 17 24 9 13 1022.1 1020.0 0.0
29/07:30am 18.6 16.4 13.2 71 3.1 E 17 20 9 11 1021.8 1019.7 0.0
29/07:00am 17.5 15.8 12.6 73 2.8 ESE 13 20 7 11 1021.6 1019.5 0.0
29/06:30am 16.4 14.6 12.2 76 2.3 ESE 13 19 7 10 1021.2 1019.1 0.0
29/06:00am 15.9 14.0 11.7 76 2.3 ESE 13 17 7 9 1020.9 1018.9 0.0
29/05:30am 16.3 14.0 11.7 74 2.5 ESE 15 19 8 10 1020.6 1018.6 0.0
29/05:00am 16.6 14.6 11.5 72 2.8 ESE 13 17 7 9 1020.5 1018.5 0.0
29/04:30am 16.8 15.2 11.5 71 2.9 SE 11 15 6 8 1020.1 1018.1 0.0
29/04:00am 16.9 15.6 11.4 70 3.0 SE 9 15 5 8 1019.9 1017.9 0.0
29/03:30am 17.0 15.3 11.3 69 3.1 ESE 11 15 6 8 1020.0 1018.0 0.0
29/03:00am 17.3 15.2 11.3 68 3.3 ESE 13 17 7 9 1019.5 1017.4 0.0
29/02:30am 17.8 15.7 11.1 65 3.7 E 13 17 7 9 1019.4 1017.3 0.0
29/02:00am 18.3 15.8 11.1 63 4.0 ESE 15 17 8 9 1019.6 1017.5 0.0
29/01:30am 18.7 16.6 11.3 62 4.1 ESE 13 17 7 9 1019.8 1017.8 0.0
29/01:00am 19.1 17.0 11.2 60 4.4 ESE 13 17 7 9 1020.0 1018.0 0.0
29/12:30am 19.7 17.2 11.2 58 4.7 ESE 15 19 8 10 1020.0 1018.0 0.0
29/12:00am 20.3 17.8 11.2 56 5.1 ESE 15 22 8 12 1020.0 1018.0 0.0
 
Date/Time
WST
Temp
°C
App
Temp
°C
Dew
Point
Rel
Hum
%
Delta-T
°C
Wind Press
QNH
hPa
Press
MSL
hPa
Rain
since 9 am
mm
Dir
 
Spd
km/h
Gust
km/h
Spd
kts
Gust
kts
28/11:30pm 20.5 17.7 11.2 55 5.2 ESE 17 24 9 13 1019.9 1017.9 0.0
28/11:00pm 20.9 18.4 11.0 53 5.5 ESE 15 20 8 11 1019.9 1017.9 0.0
28/10:30pm 21.2 19.1 11.0 52 5.7 E 13 19 7 10 1020.0 1018.0 0.0
28/10:00pm 21.5 18.5 10.6 50 6.1 ESE 17 20 9 11 1019.8 1017.8 0.0
28/09:30pm 21.8 19.8 10.3 48 6.4 ESE 11 15 6 8 1020.0 1018.0 0.0
28/09:00pm 22.4 20.0 9.9 45 6.9 ESE 13 17 7 9 1019.7 1017.7 0.0
28/08:30pm 23.3 20.0 9.7 42 7.5 SE 17 20 9 11 1019.2 1017.1 0.0
28/08:00pm 23.7 21.1 9.3 40 7.9 SE 13 19 7 10 1018.9 1016.8 0.0
28/07:30pm 24.1 21.0 8.9 38 8.3 SE 15 19 8 10 1018.6 1016.5 0.0
28/07:00pm 24.7 21.3 7.8 34 9.1 SE 15 20 8 11 1018.0 1016.0 0.0
28/06:30pm 25.3 22.4 8.3 34 9.3 SSE 13 19 7 10 1017.6 1015.6 0.0
28/06:00pm 26.1 23.2 8.1 32 9.8 SE 13 19 7 10 1017.3 1015.3 0.0
28/05:30pm 26.8 23.9 8.3 31 10.2 SE 13 17 7 9 1017.3 1015.3 0.0
28/05:00pm 27.8 26.2 8.1 29 10.8 E 6 11 3 6 1017.0 1014.9 0.0
28/04:30pm 27.9 26.3 8.7 30 10.7 ESE 7 13 4 7 1016.9 1014.8 0.0
28/04:00pm 27.5 25.3 9.3 32 10.2 SSE 11 17 6 9 1016.8 1014.7 0.0
28/03:30pm 27.4 26.0 9.7 33 10.0 SSE 7 13 4 7 1016.8 1014.7 0.0
28/03:00pm 27.4 25.3 9.7 33 10.0 SSW 11 22 6 12 1016.7 1014.6 0.0
28/02:30pm 27.2 24.0 10.0 34 9.8 S 17 28 9 15 1016.9 1014.8 0.0
28/02:00pm 27.6 25.9 9.9 33 10.0 SSE 9 20 5 11 1016.9 1014.8 0.0
28/01:30pm 28.0 25.8 9.3 31 10.5 SE 11 19 6 10 1017.2 1015.1 0.0
28/01:00pm 27.8 27.0 10.9 35 9.7 WSW 6 17 3 9 1017.5 1015.5 0.0
28/12:30pm 27.2 25.6 11.7 38 9.0 SSE 11 17 6 9 1017.9 1015.9 0.0
28/12:00pm 26.2 25.3 12.6 43 8.0 S 9 17 5 9 1018.5 1016.4 0.0
28/11:30am 26.3 26.2 13.8 46 7.5 SSE 7 19 4 10 1018.8 1016.7 0.0
28/11:00am 25.6 25.6 14.1 49 6.9 S 7 13 4 7 1019.2 1017.1 0.0
28/10:30am 24.9 24.7 14.7 53 6.2 S 9 15 5 8 1019.4 1017.3 0.0
28/10:00am 23.8 24.5 14.5 56 5.6 SW 4 11 2 6 1019.6 1017.5 0.0
28/09:30am 22.8 24.5 16.1 66 4.1 SSW 2 7 1 4 1019.7 1017.7 0.0
28/09:00am 21.1 22.0 15.2 69 3.5 WSW 4 9 2 5 1019.8 1017.8 1.4
28/08:30am 20.0 21.8 15.4 75 2.8 CALM 0 6 0 3 1019.7 1017.7 1.4
28/08:00am 18.7 20.3 14.8 78 2.3 CALM 0 6 0 3 1019.5 1017.4 1.4
28/07:30am 17.3 17.8 14.9 86 1.4 SSE 6 7 3 4 1019.4 1017.3 1.4
28/07:00am 16.0 17.4 14.5 91 0.9 CALM 0 0 0 0 1019.0 1016.9 1.4
28/06:30am 14.7 15.9 13.7 94 0.6 CALM 0 0 0 0 1018.7 1016.6 1.4
28/06:00am 14.4 15.5 13.4 94 0.6 CALM 0 0 0 0 1018.4 1016.3 1.4
28/05:30am 14.7 15.9 13.7 94 0.6 CALM 0 0 0 0 1018.1 1016.1 1.4
28/05:00am 14.9 16.1 13.9 94 0.6 CALM 0 0 0 0 1017.9 1015.9 1.4
28/04:30am 14.9 16.1 13.8 93 0.6 CALM 0 0 0 0 1017.5 1015.5 1.4
28/04:00am 15.0 16.2 13.7 92 0.7 CALM 0 0 0 0 1017.4 1015.4 1.4
28/03:30am 15.4 15.6 14.1 92 0.7 ESE 6 9 3 5 1017.4 1015.4 1.4
28/03:00am 15.5 15.7 14.2 92 0.7 ESE 6 7 3 4 1017.4 1015.4 1.4
28/02:30am 15.7 16.0 14.4 92 0.8 ESE 6 7 3 4 1017.7 1015.7 1.4
28/02:00am 15.9 16.2 14.4 91 0.9 ESE 6 9 3 5 1017.9 1015.9 1.4
28/01:30am 16.1 16.2 14.5 90 0.9 E 7 9 4 5 1018.0 1016.0 1.4
28/01:00am 16.2 16.3 14.4 89 1.0 ESE 7 9 4 5 1018.4 1016.3 1.4
28/12:30am 16.5 16.2 14.3 87 1.3 ESE 9 13 5 7 1018.6 1016.5 1.4
28/12:00am 16.4 16.4 14.2 87 1.3 SE 7 11 4 6 1018.8 1016.7 1.4
 
Date/Time
WST
Temp
°C
App
Temp
°C
Dew
Point
Rel
Hum
%
Delta-T
°C
Wind Press
QNH
hPa
Press
MSL
hPa
Rain
since 9 am
mm
Dir
 
Spd
km/h
Gust
km/h
Spd
kts
Gust
kts
27/11:30pm 16.5 16.1 14.2 86 1.3 SE 9 13 5 7 1019.0 1016.9 1.4
27/11:00pm 16.7 16.3 14.2 85 1.4 SE 9 13 5 7 1019.3 1017.2 1.4
27/10:30pm 17.0 16.6 14.1 83 1.7 ESE 9 15 5 8 1019.5 1017.4 1.4
27/10:00pm 17.4 16.1 13.7 79 2.1 ESE 13 17 7 9 1019.6 1017.5 1.4
27/09:30pm 17.6 15.9 13.7 78 2.3 ESE 15 22 8 12 1019.7 1017.7 1.4
27/09:00pm 17.7 15.3 13.8 78 2.3 SE 19 26 10 14 1019.9 1017.9 1.4
27/08:30pm 18.1 15.8 14.0 77 2.4 SE 19 28 10 15 1019.7 1017.7 1.4
27/08:00pm 18.4 17.8 15.6 84 1.7 ESE 13 19 7 10 1019.3 1017.2 1.4
27/07:30pm 18.0 17.7 15.4 85 1.5 SE 11 20 6 11 1019.4 1017.3 1.4
27/07:00pm 18.1 17.8 15.5 85 1.6 SE 11 15 6 8 1018.9 1016.8 1.4
27/06:30pm 18.3 18.2 16.1 87 1.3 SE 11 15 6 8 1018.6 1016.5 1.2
27/06:00pm 19.1 18.9 15.8 81 2.0 SSE 11 15 6 8 1018.8 1016.7 0.4
27/05:30pm 19.6 19.0 15.7 78 2.4 S 13 17 7 9 1018.8 1016.7 0.2
27/05:00pm 21.3 19.5 14.5 65 4.0 SSW 17 22 9 12 1018.5 1016.4 0.0
27/04:30pm 22.9 21.5 13.4 55 5.6 S 13 17 7 9 1018.4 1016.3 0.0
27/04:00pm 23.6 22.3 12.6 50 6.4 SE 11 17 6 9 1017.8 1015.8 0.0
27/03:30pm 24.0 21.9 11.3 45 7.2 ESE 13 17 7 9 1017.8 1015.8 0.0
27/03:00pm 24.3 22.2 11.3 44 7.4 SE 13 17 7 9 1018.0 1016.0 0.0
27/02:30pm 24.3 22.9 10.9 43 7.6 E 9 15 5 8 1018.1 1016.1 0.0
27/02:00pm 23.9 22.5 10.9 44 7.4 E 9 13 5 7 1018.5 1016.4 0.0
27/01:30pm 23.6 22.8 11.0 45 7.1 NNE 6 11 3 6 1019.1 1017.0 0.0
27/01:00pm 22.9 20.5 11.3 48 6.6 N 15 20 8 11 1019.6 1017.5 0.0
27/12:30pm 23.8 21.5 10.5 43 7.5 N 13 20 7 11 1019.9 1017.9 0.0
27/12:00pm 23.6 20.7 9.6 41 7.7 NNE 15 20 8 11 1020.2 1018.2 0.0
27/11:30am 23.5 19.7 9.1 40 7.9 NNE 19 28 10 15 1020.7 1018.7 0.0
27/11:00am 23.4 19.6 9.0 40 7.8 NNE 19 28 10 15 1021.0 1019.0 0.0
27/10:30am 22.7 18.5 8.4 40 7.7 NNE 20 28 11 15 1021.6 1019.5 0.0

Other Formats:

Comma delimited format used in spreadsheet applications
http://www.bom.gov.au/fwo/IDW60801/IDW60801.94450.axf

JavaScript Object Notation format (JSON) in row-major order
http://www.bom.gov.au/fwo/IDW60801/IDW60801.94450.json